sensor_id;sensor_type;location;lat;lon;timestamp;pressure;altitude;pressure_sealevel;temperature;humidity
72414;BME280;60995;52.154;4.498;2023-05-21T00:02:00;102005.09;;;14.73;72.84
72414;BME280;60995;52.154;4.498;2023-05-21T00:04:18;102004.78;;;14.66;72.73
72414;BME280;60995;52.154;4.498;2023-05-21T00:06:35;102002.25;;;14.75;72.80
72414;BME280;60995;52.154;4.498;2023-05-21T00:08:51;102014.03;;;14.54;73.26
72414;BME280;60995;52.154;4.498;2023-05-21T00:11:08;101999.84;;;14.60;73.38
72414;BME280;60995;52.154;4.498;2023-05-21T00:13:24;102004.19;;;14.63;73.26
72414;BME280;60995;52.154;4.498;2023-05-21T00:15:41;102008.97;;;14.49;73.41
72414;BME280;60995;52.154;4.498;2023-05-21T00:17:57;102002.19;;;14.65;73.02
72414;BME280;60995;52.154;4.498;2023-05-21T00:20:13;101999.56;;;14.63;72.97
72414;BME280;60995;52.154;4.498;2023-05-21T00:22:31;102006.03;;;14.62;72.77
72414;BME280;60995;52.154;4.498;2023-05-21T00:24:48;102008.84;;;14.51;73.45
72414;BME280;60995;52.154;4.498;2023-05-21T00:27:04;101999.19;;;14.47;73.40
72414;BME280;60995;52.154;4.498;2023-05-21T00:29:21;101994.47;;;14.49;73.55
72414;BME280;60995;52.154;4.498;2023-05-21T00:31:37;101998.47;;;14.45;73.63
72414;BME280;60995;52.154;4.498;2023-05-21T00:33:54;101992.72;;;14.48;73.67
72414;BME280;60995;52.154;4.498;2023-05-21T00:36:10;101991.13;;;14.45;73.69
72414;BME280;60995;52.154;4.498;2023-05-21T00:38:29;101990.53;;;14.42;73.73
72414;BME280;60995;52.154;4.498;2023-05-21T00:40:47;101986.94;;;14.41;73.89
72414;BME280;60995;52.154;4.498;2023-05-21T00:43:04;101989.81;;;14.39;73.90
72414;BME280;60995;52.154;4.498;2023-05-21T00:45:20;101979.56;;;14.32;73.92
72414;BME280;60995;52.154;4.498;2023-05-21T00:47:38;101985.03;;;14.32;74.21
72414;BME280;60995;52.154;4.498;2023-05-21T00:49:56;101980.56;;;14.31;73.97
72414;BME280;60995;52.154;4.498;2023-05-21T00:52:13;101971.22;;;14.33;74.16
72414;BME280;60995;52.154;4.498;2023-05-21T00:54:35;101971.22;;;14.33;74.29
72414;BME280;60995;52.154;4.498;2023-05-21T00:56:51;101975.88;;;14.43;73.96
72414;BME280;60995;52.154;4.498;2023-05-21T00:59:07;101977.91;;;14.41;73.87
72414;BME280;60995;52.154;4.498;2023-05-21T01:01:24;101979.34;;;14.45;73.91
72414;BME280;60995;52.154;4.498;2023-05-21T01:03:40;101972.66;;;14.28;74.04
72414;BME280;60995;52.154;4.498;2023-05-21T01:05:57;101979.56;;;14.32;74.21
72414;BME280;60995;52.154;4.498;2023-05-21T01:08:16;101978.91;;;14.39;74.16
72414;BME280;60995;52.154;4.498;2023-05-21T01:10:32;101973.16;;;14.43;74.41
72414;BME280;60995;52.154;4.498;2023-05-21T01:12:50;101970.63;;;14.30;74.13
72414;BME280;60995;52.154;4.498;2023-05-21T01:15:08;101972.44;;;14.41;74.06
72414;BME280;60995;52.154;4.498;2023-05-21T01:17:27;101972.44;;;14.41;74.32
72414;BME280;60995;52.154;4.498;2023-05-21T01:19:45;101969.88;;;14.49;74.22
72414;BME280;60995;52.154;4.498;2023-05-21T01:22:06;101964.16;;;14.52;74.03
72414;BME280;60995;52.154;4.498;2023-05-21T01:24:23;101964.16;;;14.52;73.78
72414;BME280;60995;52.154;4.498;2023-05-21T01:26:39;101966.19;;;14.60;73.81
72414;BME280;60995;52.154;4.498;2023-05-21T01:28:57;101956.06;;;14.71;73.55
72414;BME280;60995;52.154;4.498;2023-05-21T01:31:33;101960.25;;;14.76;73.14
72414;BME280;60995;52.154;4.498;2023-05-21T01:34:02;101959.16;;;14.88;72.91
72414;BME280;60995;52.154;4.498;2023-05-21T01:36:24;101953.69;;;14.88;72.83
72414;BME280;60995;52.154;4.498;2023-05-21T01:39:05;101960.53;;;15.13;72.48
72414;BME280;60995;52.154;4.498;2023-05-21T01:41:26;101954.94;;;15.15;72.32
72414;BME280;60995;52.154;4.498;2023-05-21T01:43:48;101957.53;;;15.26;71.80
72414;BME280;60995;52.154;4.498;2023-05-21T01:46:09;101958.94;;;15.11;72.22
72414;BME280;60995;52.154;4.498;2023-05-21T01:48:28;101959.72;;;15.32;71.84
72414;BME280;60995;52.154;4.498;2023-05-21T01:50:47;101956.94;;;15.22;72.06
72414;BME280;60995;52.154;4.498;2023-05-21T01:53:04;101953.09;;;15.45;71.88
72414;BME280;60995;52.154;4.498;2023-05-21T01:55:21;101945.75;;;15.35;71.88
72414;BME280;60995;52.154;4.498;2023-05-21T01:57:39;101951.09;;;15.37;71.85
72414;BME280;60995;52.154;4.498;2023-05-21T01:59:56;101959.00;;;15.50;71.58
72414;BME280;60995;52.154;4.498;2023-05-21T02:02:12;101954.69;;;15.47;71.90
72414;BME280;60995;52.154;4.498;2023-05-21T02:04:29;101963.34;;;15.62;71.59
72414;BME280;60995;52.154;4.498;2023-05-21T02:06:46;101957.59;;;15.55;71.87
72414;BME280;60995;52.154;4.498;2023-05-21T02:09:02;101952.38;;;15.52;71.89
72414;BME280;60995;52.154;4.498;2023-05-21T02:11:19;101950.97;;;15.58;71.62
72414;BME280;60995;52.154;4.498;2023-05-21T02:13:37;101952.09;;;15.65;71.58
72414;BME280;60995;52.154;4.498;2023-05-21T02:15:57;101949.97;;;15.59;71.50
72414;BME280;60995;52.154;4.498;2023-05-21T02:18:13;101953.53;;;15.50;71.54
72414;BME280;60995;52.154;4.498;2023-05-21T02:20:33;101946.63;;;15.65;71.98
72414;BME280;60995;52.154;4.498;2023-05-21T02:22:49;101952.25;;;15.54;71.44
72414;BME280;60995;52.154;4.498;2023-05-21T02:25:07;101955.44;;;15.59;71.71
72414;BME280;60995;52.154;4.498;2023-05-21T02:27:24;101950.50;;;15.63;71.65
72414;BME280;60995;52.154;4.498;2023-05-21T02:29:42;101955.56;;;15.58;71.77
72414;BME280;60995;52.154;4.498;2023-05-21T02:31:58;101953.84;;;15.66;71.63
72414;BME280;60995;52.154;4.498;2023-05-21T02:34:14;101950.66;;;15.61;71.48
72414;BME280;60995;52.154;4.498;2023-05-21T02:36:31;101948.22;;;15.58;71.93
72414;BME280;60995;52.154;4.498;2023-05-21T02:38:48;101954.13;;;15.53;71.94
72414;BME280;60995;52.154;4.498;2023-05-21T02:41:04;101943.19;;;15.63;71.64
72414;BME280;60995;52.154;4.498;2023-05-21T02:43:21;101952.97;;;15.76;71.19
72414;BME280;60995;52.154;4.498;2023-05-21T02:45:37;101941.31;;;15.74;71.55
72414;BME280;60995;52.154;4.498;2023-05-21T02:47:54;101944.22;;;15.82;71.15
72414;BME280;60995;52.154;4.498;2023-05-21T02:50:12;101944.34;;;15.90;70.83
72414;BME280;60995;52.154;4.498;2023-05-21T02:52:29;101938.84;;;15.70;70.85
72414;BME280;60995;52.154;4.498;2023-05-21T02:54:46;101945.75;;;15.75;71.13
72414;BME280;60995;52.154;4.498;2023-05-21T02:57:02;101945.66;;;15.86;70.74
72414;BME280;60995;52.154;4.498;2023-05-21T02:59:19;101938.59;;;15.93;70.64
72414;BME280;60995;52.154;4.498;2023-05-21T03:01:35;101944.66;;;15.87;70.44
72414;BME280;60995;52.154;4.498;2023-05-21T03:03:51;101942.22;;;15.84;70.43
72414;BME280;60995;52.154;4.498;2023-05-21T03:06:07;101948.25;;;15.97;70.67
72414;BME280;60995;52.154;4.498;2023-05-21T03:08:24;101943.66;;;15.88;70.32
72414;BME280;60995;52.154;4.498;2023-05-21T03:10:41;101939.75;;;15.81;70.71
72414;BME280;60995;52.154;4.498;2023-05-21T03:12:57;101943.06;;;15.84;70.77
72414;BME280;60995;52.154;4.498;2023-05-21T03:15:14;101935.13;;;15.71;70.44
72414;BME280;60995;52.154;4.498;2023-05-21T03:17:31;101937.56;;;15.75;70.52
72414;BME280;60995;52.154;4.498;2023-05-21T03:19:47;101923.59;;;15.97;70.36
72414;BME280;60995;52.154;4.498;2023-05-21T03:22:04;101923.88;;;15.94;69.75
72414;BME280;60995;52.154;4.498;2023-05-21T03:24:21;101933.13;;;15.93;70.23
72414;BME280;60995;52.154;4.498;2023-05-21T03:26:37;101935.97;;;16.01;69.92
72414;BME280;60995;52.154;4.498;2023-05-21T03:28:55;101935.56;;;15.96;69.76
72414;BME280;60995;52.154;4.498;2023-05-21T03:31:12;101935.56;;;16.06;69.69
72414;BME280;60995;52.154;4.498;2023-05-21T03:33:28;101928.94;;;15.89;70.20
72414;BME280;60995;52.154;4.498;2023-05-21T03:35:45;101931.41;;;15.92;70.08
72414;BME280;60995;52.154;4.498;2023-05-21T03:38:01;101925.31;;;16.08;69.84
72414;BME280;60995;52.154;4.498;2023-05-21T03:40:17;101927.00;;;16.19;69.39
72414;BME280;60995;52.154;4.498;2023-05-21T03:42:34;101917.22;;;16.16;69.33
72414;BME280;60995;52.154;4.498;2023-05-21T03:44:50;101922.56;;;16.08;69.25
72414;BME280;60995;52.154;4.498;2023-05-21T03:47:06;101925.88;;;16.02;69.32
72414;BME280;60995;52.154;4.498;2023-05-21T03:49:23;101928.50;;;16.03;69.50
72414;BME280;60995;52.154;4.498;2023-05-21T03:51:41;101923.16;;;16.12;69.08
72414;BME280;60995;52.154;4.498;2023-05-21T03:53:58;101928.19;;;16.07;69.45
72414;BME280;60995;52.154;4.498;2023-05-21T03:56:14;101932.06;;;16.14;68.92
72414;BME280;60995;52.154;4.498;2023-05-21T03:58:30;101928.56;;;16.21;68.58
72414;BME280;60995;52.154;4.498;2023-05-21T04:00:47;101926.78;;;15.93;69.38
72414;BME280;60995;52.154;4.498;2023-05-21T04:03:03;101927.00;;;16.19;69.76
72414;BME280;60995;52.154;4.498;2023-05-21T04:05:21;101930.50;;;16.01;69.38
72414;BME280;60995;52.154;4.498;2023-05-21T04:07:38;101924.16;;;16.11;69.86
72414;BME280;60995;52.154;4.498;2023-05-21T04:09:54;101929.19;;;16.06;69.38
72414;BME280;60995;52.154;4.498;2023-05-21T04:12:11;101926.47;;;16.06;69.32
72414;BME280;60995;52.154;4.498;2023-05-21T04:14:27;101928.31;;;16.15;69.34
72414;BME280;60995;52.154;4.498;2023-05-21T04:16:44;101928.63;;;16.12;69.44
72414;BME280;60995;52.154;4.498;2023-05-21T04:19:00;101941.72;;;16.18;69.44
72414;BME280;60995;52.154;4.498;2023-05-21T04:21:16;101933.09;;;16.13;69.53
72414;BME280;60995;52.154;4.498;2023-05-21T04:23:33;101933.25;;;16.01;69.65
72414;BME280;60995;52.154;4.498;2023-05-21T04:25:51;101943.03;;;16.04;69.76
72414;BME280;60995;52.154;4.498;2023-05-21T04:28:07;101933.25;;;16.01;69.70
72414;BME280;60995;52.154;4.498;2023-05-21T04:30:24;101935.09;;;16.11;69.96
72414;BME280;60995;52.154;4.498;2023-05-21T04:32:40;101929.94;;;16.08;69.57
72414;BME280;60995;52.154;4.498;2023-05-21T04:35:00;101930.56;;;16.29;69.12
72414;BME280;60995;52.154;4.498;2023-05-21T04:37:16;101937.94;;;16.19;69.08
72414;BME280;60995;52.154;4.498;2023-05-21T04:39:33;101932.94;;;16.14;69.46
72414;BME280;60995;52.154;4.498;2023-05-21T04:41:49;101928.19;;;16.07;69.72
72414;BME280;60995;52.154;4.498;2023-05-21T04:44:09;101924.44;;;16.08;69.92
72414;BME280;60995;52.154;4.498;2023-05-21T04:46:29;101934.78;;;16.14;69.49
72414;BME280;60995;52.154;4.498;2023-05-21T04:48:45;101935.34;;;16.27;69.03
72414;BME280;60995;52.154;4.498;2023-05-21T04:51:02;101934.47;;;16.36;68.86
72414;BME280;60995;52.154;4.498;2023-05-21T04:53:22;101929.56;;;16.40;68.70
72414;BME280;60995;52.154;4.498;2023-05-21T04:55:38;101935.31;;;16.47;68.54
72414;BME280;60995;52.154;4.498;2023-05-21T04:57:55;101938.72;;;16.49;67.90
72414;BME280;60995;52.154;4.498;2023-05-21T05:00:11;101937.31;;;16.45;68.08
72414;BME280;60995;52.154;4.498;2023-05-21T05:02:28;101925.03;;;16.49;67.96
72414;BME280;60995;52.154;4.498;2023-05-21T05:04:44;101931.84;;;16.45;68.10
72414;BME280;60995;52.154;4.498;2023-05-21T05:07:01;101927.66;;;16.78;67.29
72414;BME280;60995;52.154;4.498;2023-05-21T05:09:17;101921.28;;;16.50;67.46
72414;BME280;60995;52.154;4.498;2023-05-21T05:11:36;101928.91;;;16.56;67.20
72414;BME280;60995;52.154;4.498;2023-05-21T05:13:52;101925.16;;;16.57;67.06
72414;BME280;60995;52.154;4.498;2023-05-21T05:16:09;101926.50;;;16.81;67.05
72414;BME280;60995;52.154;4.498;2023-05-21T05:18:28;101910.06;;;16.81;66.55
72414;BME280;60995;52.154;4.498;2023-05-21T05:20:44;101917.03;;;16.65;66.87
72414;BME280;60995;52.154;4.498;2023-05-21T05:23:01;101912.38;;;16.76;66.84
72414;BME280;60995;52.154;4.498;2023-05-21T05:25:17;101908.16;;;16.91;66.53
72414;BME280;60995;52.154;4.498;2023-05-21T05:27:34;101913.59;;;16.63;66.67
72414;BME280;60995;52.154;4.498;2023-05-21T05:29:51;101899.94;;;16.81;66.37
72414;BME280;60995;52.154;4.498;2023-05-21T05:32:07;101908.31;;;17.08;66.12
72414;BME280;60995;52.154;4.498;2023-05-21T05:34:23;101913.06;;;17.33;65.10
72414;BME280;60995;52.154;4.498;2023-05-21T05:36:39;101901.38;;;17.13;64.93
72414;BME280;60995;52.154;4.498;2023-05-21T05:38:56;101909.28;;;17.16;65.27
72414;BME280;60995;52.154;4.498;2023-05-21T05:41:12;101899.47;;;17.14;65.65
72414;BME280;60995;52.154;4.498;2023-05-21T05:43:28;101890.81;;;17.18;65.58
72414;BME280;60995;52.154;4.498;2023-05-21T05:45:45;101906.88;;;17.31;65.07
72414;BME280;60995;52.154;4.498;2023-05-21T05:48:01;101901.06;;;17.34;64.89
72414;BME280;60995;52.154;4.498;2023-05-21T05:50:17;101897.09;;;17.29;64.98
72414;BME280;60995;52.154;4.498;2023-05-21T05:52:33;101891.22;;;17.42;64.22
72414;BME280;60995;52.154;4.498;2023-05-21T05:54:50;101894.31;;;17.47;64.30
72414;BME280;60995;52.154;4.498;2023-05-21T05:57:06;101893.47;;;17.28;64.76
72414;BME280;60995;52.154;4.498;2023-05-21T05:59:23;101894.69;;;16.88;65.92
72414;BME280;60995;52.154;4.498;2023-05-21T06:01:39;101888.50;;;17.14;66.11
72414;BME280;60995;52.154;4.498;2023-05-21T06:03:57;101893.78;;;17.61;64.43
72414;BME280;60995;52.154;4.498;2023-05-21T06:06:13;101891.25;;;17.68;64.25
72414;BME280;60995;52.154;4.498;2023-05-21T06:08:29;101894.47;;;17.63;63.66
72414;BME280;60995;52.154;4.498;2023-05-21T06:10:46;101901.00;;;18.07;62.79
72414;BME280;60995;52.154;4.498;2023-05-21T06:13:02;101894.63;;;17.80;62.91
72414;BME280;60995;52.154;4.498;2023-05-21T06:15:18;101900.03;;;18.16;62.35
72414;BME280;60995;52.154;4.498;2023-05-21T06:17:34;101900.78;;;18.26;62.11
72414;BME280;60995;52.154;4.498;2023-05-21T06:19:51;101901.22;;;18.40;61.31
72414;BME280;60995;52.154;4.498;2023-05-21T06:22:07;101910.03;;;18.51;61.44
72414;BME280;60995;52.154;4.498;2023-05-21T06:24:24;101898.94;;;19.12;59.93
72414;BME280;60995;52.154;4.498;2023-05-21T06:26:41;101894.31;;;19.13;59.31
72414;BME280;60995;52.154;4.498;2023-05-21T06:28:57;101906.03;;;19.31;58.75
72414;BME280;60995;52.154;4.498;2023-05-21T06:31:13;101904.59;;;19.03;59.14
72414;BME280;60995;52.154;4.498;2023-05-21T06:33:30;101901.84;;;19.03;59.07
72414;BME280;60995;52.154;4.498;2023-05-21T06:35:48;101901.06;;;19.27;58.78
72414;BME280;60995;52.154;4.498;2023-05-21T06:38:04;101906.03;;;18.72;60.14
72414;BME280;60995;52.154;4.498;2023-05-21T06:40:21;101901.22;;;18.40;60.64
72414;BME280;60995;52.154;4.498;2023-05-21T06:42:37;101905.09;;;18.29;61.09
72414;BME280;60995;52.154;4.498;2023-05-21T06:44:53;101903.81;;;18.41;61.47
72414;BME280;60995;52.154;4.498;2023-05-21T06:47:09;101905.84;;;18.13;62.05
72414;BME280;60995;52.154;4.498;2023-05-21T06:49:26;101907.56;;;18.40;61.73
72414;BME280;60995;52.154;4.498;2023-05-21T06:51:42;101911.09;;;18.59;61.21
72414;BME280;60995;52.154;4.498;2023-05-21T06:53:58;101905.34;;;18.78;60.67
72414;BME280;60995;52.154;4.498;2023-05-21T06:56:14;101907.06;;;18.79;60.16
72414;BME280;60995;52.154;4.498;2023-05-21T06:58:31;101905.25;;;18.96;59.97
72414;BME280;60995;52.154;4.498;2023-05-21T07:00:47;101908.00;;;18.96;59.54
72414;BME280;60995;52.154;4.498;2023-05-21T07:03:04;101904.91;;;18.91;60.09
72414;BME280;60995;52.154;4.498;2023-05-21T07:05:20;101908.00;;;18.96;59.50
72414;BME280;60995;52.154;4.498;2023-05-21T07:07:36;101918.97;;;18.88;59.87
72414;BME280;60995;52.154;4.498;2023-05-21T07:09:52;101909.41;;;19.00;59.01
72414;BME280;60995;52.154;4.498;2023-05-21T07:12:09;101912.44;;;19.48;58.42
72414;BME280;60995;52.154;4.498;2023-05-21T07:14:25;101910.91;;;20.04;56.67
72414;BME280;60995;52.154;4.498;2023-05-21T07:16:42;101904.13;;;20.39;55.55
72414;BME280;60995;52.154;4.498;2023-05-21T07:18:58;101910.16;;;20.43;54.96
72414;BME280;60995;52.154;4.498;2023-05-21T07:21:14;101914.84;;;20.17;55.93
72414;BME280;60995;52.154;4.498;2023-05-21T07:23:31;101911.41;;;19.74;55.39
72414;BME280;60995;52.154;4.498;2023-05-21T07:25:48;101916.72;;;19.51;56.10
72414;BME280;60995;52.154;4.498;2023-05-21T07:28:04;101912.59;;;19.47;57.12
72414;BME280;60995;52.154;4.498;2023-05-21T07:30:20;101918.72;;;19.16;57.80
72414;BME280;60995;52.154;4.498;2023-05-21T07:32:37;101912.03;;;19.18;57.44
72414;BME280;60995;52.154;4.498;2023-05-21T07:34:54;101918.41;;;19.19;57.58
72414;BME280;60995;52.154;4.498;2023-05-21T07:37:11;101917.25;;;19.46;57.69
72414;BME280;60995;52.154;4.498;2023-05-21T07:39:28;101919.19;;;19.87;56.32
72414;BME280;60995;52.154;4.498;2023-05-21T07:41:47;101910.72;;;19.72;55.90
72414;BME280;60995;52.154;4.498;2023-05-21T07:44:04;101918.78;;;19.24;56.71
72414;BME280;60995;52.154;4.498;2023-05-21T07:46:20;101923.38;;;19.15;57.25
72414;BME280;60995;52.154;4.498;2023-05-21T07:48:37;101919.75;;;19.07;57.79
72414;BME280;60995;52.154;4.498;2023-05-21T07:50:53;101915.13;;;19.24;57.32
72414;BME280;60995;52.154;4.498;2023-05-21T07:53:11;101913.63;;;19.46;56.79
72414;BME280;60995;52.154;4.498;2023-05-21T07:55:27;101901.63;;;19.63;56.79
72414;BME280;60995;52.154;4.498;2023-05-21T07:57:44;101904.69;;;19.44;56.94
72414;BME280;60995;52.154;4.498;2023-05-21T08:00:01;101917.69;;;19.09;57.49
72414;BME280;60995;52.154;4.498;2023-05-21T08:02:17;101914.81;;;19.27;57.17
72414;BME280;60995;52.154;4.498;2023-05-21T08:04:34;101918.69;;;18.99;58.22
72414;BME280;60995;52.154;4.498;2023-05-21T08:06:51;101922.31;;;19.00;58.62
72414;BME280;60995;52.154;4.498;2023-05-21T08:09:07;101919.91;;;19.05;58.22
72414;BME280;60995;52.154;4.498;2023-05-21T08:11:23;101910.88;;;18.87;58.65
72414;BME280;60995;52.154;4.498;2023-05-21T08:13:41;101912.03;;;18.76;58.86
72414;BME280;60995;52.154;4.498;2023-05-21T08:15:58;101918.84;;;18.63;59.23
72414;BME280;60995;52.154;4.498;2023-05-21T08:18:14;101909.38;;;18.92;58.71
72414;BME280;60995;52.154;4.498;2023-05-21T08:20:32;101913.97;;;19.59;57.34
72414;BME280;60995;52.154;4.498;2023-05-21T08:22:49;101905.22;;;19.80;55.31
72414;BME280;60995;52.154;4.498;2023-05-21T08:25:06;101905.75;;;19.92;54.76
72414;BME280;60995;52.154;4.498;2023-05-21T08:27:23;101907.13;;;20.13;54.73
72414;BME280;60995;52.154;4.498;2023-05-21T08:29:39;101916.50;;;20.43;53.62
72414;BME280;60995;52.154;4.498;2023-05-21T08:31:56;101920.16;;;20.36;53.40
72414;BME280;60995;52.154;4.498;2023-05-21T08:34:12;101910.44;;;20.48;53.00
72414;BME280;60995;52.154;4.498;2023-05-21T08:36:28;101908.59;;;20.88;52.04
72414;BME280;60995;52.154;4.498;2023-05-21T08:38:45;101907.06;;;20.86;51.64
72414;BME280;60995;52.154;4.498;2023-05-21T08:41:03;101909.41;;;21.28;51.37
72414;BME280;60995;52.154;4.498;2023-05-21T08:43:25;101915.78;;;21.52;50.33
72414;BME280;60995;52.154;4.498;2023-05-21T08:45:52;101910.69;;;21.72;49.13
72414;BME280;60995;52.154;4.498;2023-05-21T08:48:15;101914.94;;;21.28;49.82
72414;BME280;60995;52.154;4.498;2023-05-21T08:50:32;101908.22;;;21.54;49.75
72414;BME280;60995;52.154;4.498;2023-05-21T08:52:49;101907.44;;;21.14;50.39
72414;BME280;60995;52.154;4.498;2023-05-21T08:55:06;101906.59;;;20.74;51.54
72414;BME280;60995;52.154;4.498;2023-05-21T08:57:24;101912.50;;;20.62;52.21
72414;BME280;60995;52.154;4.498;2023-05-21T08:59:42;101905.25;;;21.32;50.31
72414;BME280;60995;52.154;4.498;2023-05-21T09:02:00;101900.06;;;21.99;48.68
72414;BME280;60995;52.154;4.498;2023-05-21T09:04:17;101900.59;;;22.77;46.85
72414;BME280;60995;52.154;4.498;2023-05-21T09:06:34;101899.44;;;23.88;44.80
72414;BME280;60995;52.154;4.498;2023-05-21T09:08:59;101893.69;;;24.82;41.87
72414;BME280;60995;52.154;4.498;2023-05-21T09:11:21;101890.22;;;24.73;41.38
72414;BME280;60995;52.154;4.498;2023-05-21T09:13:39;101886.88;;;25.46;39.29
72414;BME280;60995;52.154;4.498;2023-05-21T09:15:56;101879.72;;;25.23;39.75
72414;BME280;60995;52.154;4.498;2023-05-21T09:18:13;101876.09;;;25.16;40.04
72414;BME280;60995;52.154;4.498;2023-05-21T09:20:31;101877.69;;;25.79;39.17
72414;BME280;60995;52.154;4.498;2023-05-21T09:22:48;101883.56;;;25.16;40.41
72414;BME280;60995;52.154;4.498;2023-05-21T09:25:06;101880.03;;;24.45;40.99
72414;BME280;60995;52.154;4.498;2023-05-21T09:27:23;101873.19;;;24.76;40.30
72414;BME280;60995;52.154;4.498;2023-05-21T09:29:40;101865.63;;;25.32;39.72
72414;BME280;60995;52.154;4.498;2023-05-21T09:31:58;101874.03;;;25.99;38.63
72414;BME280;60995;52.154;4.498;2023-05-21T09:34:23;101868.88;;;25.35;38.99
72414;BME280;60995;52.154;4.498;2023-05-21T09:36:40;101866.59;;;24.42;41.34
72414;BME280;60995;52.154;4.498;2023-05-21T09:38:56;101877.44;;;25.54;39.25
72414;BME280;60995;52.154;4.498;2023-05-21T09:41:14;101867.41;;;25.80;38.73
72414;BME280;60995;52.154;4.498;2023-05-21T09:43:31;101864.88;;;27.22;36.95
72414;BME280;60995;52.154;4.498;2023-05-21T09:45:54;101869.31;;;26.91;35.72
72414;BME280;60995;52.154;4.498;2023-05-21T09:48:12;101856.50;;;26.84;36.12
72414;BME280;60995;52.154;4.498;2023-05-21T09:50:28;101862.66;;;26.40;36.59
72414;BME280;60995;52.154;4.498;2023-05-21T09:52:45;101863.16;;;25.90;37.08
72414;BME280;60995;52.154;4.498;2023-05-21T09:55:06;101859.72;;;25.88;37.54
72414;BME280;60995;52.154;4.498;2023-05-21T09:57:29;101868.34;;;24.91;38.57
72414;BME280;60995;52.154;4.498;2023-05-21T09:59:49;101874.72;;;24.85;39.78
72414;BME280;60995;52.154;4.498;2023-05-21T10:02:22;101862.16;;;24.96;39.33
72414;BME280;60995;52.154;4.498;2023-05-21T10:04:39;101872.19;;;24.97;40.11
72414;BME280;60995;52.154;4.498;2023-05-21T10:06:58;101873.44;;;24.81;40.69
72414;BME280;60995;52.154;4.498;2023-05-21T10:09:17;101861.16;;;24.27;41.63
72414;BME280;60995;52.154;4.498;2023-05-21T10:11:35;101867.72;;;24.54;41.32
72414;BME280;60995;52.154;4.498;2023-05-21T10:13:59;101859.03;;;25.33;39.69
72414;BME280;60995;52.154;4.498;2023-05-21T10:16:23;101859.25;;;25.31;39.69
72414;BME280;60995;52.154;4.498;2023-05-21T10:18:41;101848.59;;;25.82;38.50
72414;BME280;60995;52.154;4.498;2023-05-21T10:21:00;101851.16;;;25.36;40.20
72414;BME280;60995;52.154;4.498;2023-05-21T10:23:17;101855.88;;;25.49;39.38
72414;BME280;60995;52.154;4.498;2023-05-21T10:25:35;101852.44;;;25.54;38.61
72414;BME280;60995;52.154;4.498;2023-05-21T10:27:54;101846.63;;;25.22;39.12
72414;BME280;60995;52.154;4.498;2023-05-21T10:30:11;101837.47;;;25.88;37.74
72414;BME280;60995;52.154;4.498;2023-05-21T10:32:27;101835.81;;;27.05;36.25
72414;BME280;60995;52.154;4.498;2023-05-21T10:34:47;101825.22;;;28.21;33.81
72414;BME280;60995;52.154;4.498;2023-05-21T10:37:08;101813.25;;;27.96;34.16
72414;BME280;60995;52.154;4.498;2023-05-21T10:39:25;101823.69;;;28.07;34.50
72414;BME280;60995;52.154;4.498;2023-05-21T10:49:48;101835.63;;;27.64;34.17
72414;BME280;60995;52.154;4.498;2023-05-21T10:55:00;101814.63;;;27.86;33.60
72414;BME280;60995;52.154;4.498;2023-05-21T10:57:31;101824.16;;;27.53;34.43
72414;BME280;60995;52.154;4.498;2023-05-21T11:00:00;101831.50;;;26.12;37.36
72414;BME280;60995;52.154;4.498;2023-05-21T11:02:18;101815.25;;;25.48;38.45
72414;BME280;60995;52.154;4.498;2023-05-21T11:04:35;101817.34;;;25.26;38.81
72414;BME280;60995;52.154;4.498;2023-05-21T11:06:55;101819.97;;;25.54;38.50
72414;BME280;60995;52.154;4.498;2023-05-21T11:09:14;101819.47;;;26.24;37.23
72414;BME280;60995;52.154;4.498;2023-05-21T11:11:51;101813.53;;;25.74;38.09
72414;BME280;60995;52.154;4.498;2023-05-21T11:14:38;101814.84;;;25.65;38.25
72414;BME280;60995;52.154;4.498;2023-05-21T11:16:58;101810.44;;;26.36;36.92
72414;BME280;60995;52.154;4.498;2023-05-21T11:19:16;101802.28;;;26.41;37.10
72414;BME280;60995;52.154;4.498;2023-05-21T11:21:33;101808.94;;;26.40;36.54
72414;BME280;60995;52.154;4.498;2023-05-21T11:23:53;101794.66;;;26.03;37.61
72414;BME280;60995;52.154;4.498;2023-05-21T11:26:21;101797.72;;;25.68;38.63
72414;BME280;60995;52.154;4.498;2023-05-21T11:28:39;101797.75;;;26.53;36.92
72414;BME280;60995;52.154;4.498;2023-05-21T11:31:21;101791.16;;;27.50;35.18
72414;BME280;60995;52.154;4.498;2023-05-21T11:33:41;101787.16;;;26.03;37.72
72414;BME280;60995;52.154;4.498;2023-05-21T11:35:58;101785.97;;;25.46;39.31
72414;BME280;60995;52.154;4.498;2023-05-21T11:38:18;101792.81;;;25.56;39.46
72414;BME280;60995;52.154;4.498;2023-05-21T11:40:34;101776.34;;;25.62;39.03
72414;BME280;60995;52.154;4.498;2023-05-21T11:42:55;101782.75;;;26.54;37.25
72414;BME280;60995;52.154;4.498;2023-05-21T11:45:16;101776.25;;;26.22;37.46
72414;BME280;60995;52.154;4.498;2023-05-21T11:47:34;101782.09;;;25.73;38.38
72414;BME280;60995;52.154;4.498;2023-05-21T11:49:51;101769.91;;;25.81;38.33
72414;BME280;60995;52.154;4.498;2023-05-21T11:52:09;101770.53;;;25.90;38.59
72414;BME280;60995;52.154;4.498;2023-05-21T11:54:26;101769.50;;;25.71;38.51
72414;BME280;60995;52.154;4.498;2023-05-21T11:56:48;101767.38;;;25.39;39.34
72414;BME280;60995;52.154;4.498;2023-05-21T11:59:12;101768.22;;;25.33;39.74
72414;BME280;60995;52.154;4.498;2023-05-21T12:01:29;101774.84;;;25.79;38.61
72414;BME280;60995;52.154;4.498;2023-05-21T12:03:46;101770.31;;;25.91;38.76
72414;BME280;60995;52.154;4.498;2023-05-21T12:06:05;101760.91;;;25.92;38.59
72414;BME280;60995;52.154;4.498;2023-05-21T12:08:23;101756.81;;;26.02;38.83
72414;BME280;60995;52.154;4.498;2023-05-21T12:10:40;101763.47;;;25.87;38.55
72414;BME280;60995;52.154;4.498;2023-05-21T12:12:56;101746.84;;;25.67;39.20